Time;durP1;ratioP1;P1;durP2;ratioP2;P2;SDS_P1;SDS_P2;PMS_P1;PMS_P2;Temp;Humidity;BMP_temperature;BMP_pressure;BME280_temperature;BME280_humidity;BME280_pressure;Samples;Min_cycle;Max_cycle;Signal;HPM_P1;HPM_P2
2021/07/23 00:00:42;;;;;;;9.93;7.03;;;17.10;99.90;;;;;;5027193;28;20025;-74
2021/07/23 00:03:12;;;;;;;10.02;6.95;;;17.00;99.90;;;;;;5009499;28;20099;-74
2021/07/23 00:05:37;;;;;;;10.15;7.20;;;17.00;99.90;;;;;;5026394;28;20585;-74
2021/07/23 00:08:03;;;;;;;9.63;6.90;;;17.00;99.90;;;;;;5025470;28;20033;-74
2021/07/23 00:10:29;;;;;;;10.48;6.78;;;17.00;98.50;;;;;;5027365;28;20398;-74
2021/07/23 00:12:57;;;;;;;10.07;6.80;;;17.00;99.60;;;;;;5027232;28;20075;-74
2021/07/23 00:15:23;;;;;;;9.07;7.00;;;16.90;99.90;;;;;;5026000;28;20088;-74
2021/07/23 00:17:48;;;;;;;8.82;6.32;;;16.90;99.90;;;;;;5027425;28;20026;-74
2021/07/23 00:20:16;;;;;;;8.95;6.68;;;16.90;99.90;;;;;;5026787;28;20072;-74
2021/07/23 00:22:47;;;;;;;9.13;6.25;;;16.90;99.90;;;;;;5008393;28;20030;-74
2021/07/23 00:25:17;;;;;;;9.10;6.40;;;16.80;99.80;;;;;;5041711;28;20021;-74
2021/07/23 00:27:45;;;;;;;9.98;6.75;;;16.80;99.80;;;;;;5041548;28;20037;-74
2021/07/23 00:30:11;;;;;;;11.25;6.85;;;16.80;99.90;;;;;;5026122;28;20186;-74
2021/07/23 00:32:40;;;;;;;8.90;6.47;;;16.80;99.90;;;;;;5009333;28;20040;-74
2021/07/23 00:35:09;;;;;;;8.95;6.82;;;16.80;99.90;;;;;;5026764;28;20029;-74
2021/07/23 00:37:35;;;;;;;9.88;6.93;;;16.70;99.90;;;;;;5026893;28;20038;-74
2021/07/23 00:40:00;;;;;;;10.82;6.93;;;16.70;99.90;;;;;;5008661;28;20087;-74
2021/07/23 00:42:36;;;;;;;10.32;7.07;;;16.70;99.90;;;;;;5028569;28;20036;-74
2021/07/23 00:45:04;;;;;;;8.35;6.57;;;16.70;99.90;;;;;;5030534;28;20037;-74
2021/07/23 00:47:30;;;;;;;8.77;7.05;;;16.60;99.90;;;;;;5012482;28;20030;-74
2021/07/23 00:49:57;;;;;;;9.75;7.07;;;16.60;99.90;;;;;;5046424;28;20039;-74
2021/07/23 00:52:28;;;;;;;10.02;7.20;;;16.60;99.90;;;;;;5013015;28;20037;-74
2021/07/23 00:54:56;;;;;;;10.45;7.30;;;16.60;99.90;;;;;;4997456;28;20471;-74
2021/07/23 00:57:22;;;;;;;10.43;6.85;;;16.60;99.90;;;;;;5032490;28;20052;-74
2021/07/23 00:59:48;;;;;;;9.50;6.70;;;16.60;99.90;;;;;;5049765;28;20044;-74
2021/07/23 01:02:13;;;;;;;8.88;6.75;;;16.60;99.90;;;;;;5032937;28;20064;-74
2021/07/23 01:04:42;;;;;;;8.73;6.53;;;16.60;99.90;;;;;;5066784;28;20036;-74
2021/07/23 01:07:07;;;;;;;10.70;7.30;;;16.60;99.90;;;;;;5050645;28;20024;-74
2021/07/23 01:09:36;;;;;;;11.43;7.32;;;16.60;99.90;;;;;;5050172;28;20087;-74
2021/07/23 01:12:02;;;;;;;9.88;7.25;;;16.50;99.90;;;;;;5033508;28;20064;-75
2021/07/23 01:14:34;;;;;;;10.25;6.88;;;16.50;99.90;;;;;;5032350;28;20071;-74
2021/07/23 01:17:00;;;;;;;10.05;7.28;;;16.50;99.90;;;;;;5047454;28;20060;-75
2021/07/23 01:19:32;;;;;;;8.85;6.88;;;16.50;99.90;;;;;;5064859;28;20036;-74
2021/07/23 01:21:57;;;;;;;10.93;7.75;;;16.50;99.90;;;;;;5032670;28;20087;-74
2021/07/23 01:24:26;;;;;;;9.68;7.30;;;16.50;99.90;;;;;;5047678;28;20549;-74
2021/07/23 01:26:52;;;;;;;9.77;7.20;;;16.40;99.90;;;;;;5065072;28;20088;-74
2021/07/23 01:29:18;;;;;;;10.27;7.28;;;16.40;99.90;;;;;;5031754;28;20028;-74
2021/07/23 01:31:46;;;;;;;10.57;7.53;;;16.40;99.90;;;;;;5032172;28;20039;-74
2021/07/23 01:34:11;;;;;;;9.90;7.60;;;16.40;99.90;;;;;;5049168;28;20028;-74
2021/07/23 01:36:39;;;;;;;10.90;7.20;;;16.40;99.90;;;;;;5031408;28;20029;-74
2021/07/23 01:39:05;;;;;;;10.27;7.20;;;16.40;99.90;;;;;;5050167;28;20343;-74
2021/07/23 01:41:30;;;;;;;9.65;6.82;;;16.30;99.90;;;;;;5005041;28;20040;-74
2021/07/23 01:43:56;;;;;;;10.23;7.20;;;16.40;99.90;;;;;;5046162;28;20032;-74
2021/07/23 01:46:24;;;;;;;10.80;7.78;;;16.30;99.90;;;;;;5048808;28;20069;-75
2021/07/23 01:48:49;;;;;;;10.43;7.15;;;16.30;99.90;;;;;;5048514;28;20094;-75
2021/07/23 01:51:17;;;;;;;11.13;7.85;;;16.30;99.90;;;;;;5050538;28;20025;-75
2021/07/23 01:53:43;;;;;;;10.05;7.18;;;16.30;99.90;;;;;;5029068;28;20029;-75
2021/07/23 01:56:09;;;;;;;11.75;7.75;;;16.20;99.90;;;;;;5047532;28;20204;-75
2021/07/23 01:58:39;;;;;;;9.75;7.25;;;16.20;99.90;;;;;;5048969;28;20049;-75
2021/07/23 02:01:07;;;;;;;9.85;7.15;;;16.20;99.90;;;;;;5064768;28;20508;-75
2021/07/23 02:03:34;;;;;;;10.13;7.50;;;16.10;99.90;;;;;;5049064;28;20651;-75
2021/07/23 02:05:59;;;;;;;10.80;7.78;;;16.10;99.90;;;;;;5031246;28;20111;-75
2021/07/23 02:08:25;;;;;;;10.40;7.00;;;16.10;99.90;;;;;;5047834;28;20374;-76
2021/07/23 02:10:53;;;;;;;10.45;7.47;;;16.10;99.90;;;;;;5048483;28;20024;-75
2021/07/23 02:13:19;;;;;;;10.10;7.03;;;16.10;99.90;;;;;;5048636;28;20112;-76
2021/07/23 02:15:44;;;;;;;10.80;7.47;;;16.00;99.90;;;;;;5027500;28;20349;-75
2021/07/23 02:18:10;;;;;;;10.18;7.40;;;16.00;99.90;;;;;;5031280;28;20112;-75
2021/07/23 02:20:38;;;;;;;9.77;7.47;;;16.00;99.90;;;;;;5063265;28;20031;-75
2021/07/23 02:23:06;;;;;;;9.98;7.20;;;16.00;99.90;;;;;;5047951;28;20028;-75
2021/07/23 02:25:32;;;;;;;10.27;6.90;;;16.00;99.90;;;;;;5062908;28;20037;-75
2021/07/23 02:27:58;;;;;;;10.32;7.78;;;16.00;99.90;;;;;;5031854;28;20037;-75
2021/07/23 02:30:26;;;;;;;10.40;7.80;;;16.00;99.90;;;;;;5048467;28;20028;-75
2021/07/23 02:32:54;;;;;;;10.38;7.53;;;16.00;99.90;;;;;;5030251;28;20048;-75
2021/07/23 02:35:19;;;;;;;10.60;7.43;;;16.00;99.90;;;;;;5030896;28;20617;-75
2021/07/23 02:37:45;;;;;;;10.75;7.78;;;16.00;99.90;;;;;;5047630;28;20039;-75
2021/07/23 02:40:13;;;;;;;10.60;7.95;;;16.00;99.90;;;;;;5048401;28;20040;-75
2021/07/23 02:42:41;;;;;;;10.27;7.60;;;16.00;99.90;;;;;;5048282;28;20115;-75
2021/07/23 02:45:09;;;;;;;11.00;7.60;;;16.00;99.90;;;;;;5048431;28;20043;-75
2021/07/23 02:47:35;;;;;;;12.20;7.75;;;15.90;99.90;;;;;;5049335;28;20040;-75
2021/07/23 02:50:01;;;;;;;11.50;7.97;;;15.90;99.90;;;;;;5063541;28;20033;-75
2021/07/23 02:52:26;;;;;;;10.25;7.25;;;15.90;99.90;;;;;;5047815;28;20041;-75
2021/07/23 02:54:52;;;;;;;11.70;7.85;;;15.90;99.90;;;;;;5048779;28;20029;-75
2021/07/23 02:57:17;;;;;;;10.00;7.32;;;15.90;99.90;;;;;;5049044;28;20021;-74
2021/07/23 02:59:43;;;;;;;10.25;7.38;;;15.90;99.90;;;;;;5047449;28;20613;-76
2021/07/23 03:02:11;;;;;;;10.80;8.10;;;15.90;99.90;;;;;;5048299;28;20037;-74
2021/07/23 03:04:39;;;;;;;11.10;7.38;;;15.90;99.90;;;;;;5047379;28;20071;-74
2021/07/23 03:07:04;;;;;;;10.13;7.65;;;15.80;99.90;;;;;;5015824;28;20508;-74
2021/07/23 03:09:30;;;;;;;11.10;7.28;;;15.90;99.90;;;;;;5047458;28;20039;-74
2021/07/23 03:12:00;;;;;;;10.52;7.07;;;15.80;99.90;;;;;;5047946;28;20102;-74
2021/07/23 03:14:26;;;;;;;10.23;7.60;;;15.80;99.90;;;;;;5047628;28;20025;-74
2021/07/23 03:16:51;;;;;;;11.52;7.70;;;15.80;99.90;;;;;;5048459;28;20029;-74
2021/07/23 03:19:17;;;;;;;11.15;7.82;;;15.80;99.90;;;;;;5029654;28;20050;-74
2021/07/23 03:21:42;;;;;;;10.55;7.15;;;15.70;99.90;;;;;;5029266;28;21923;-73
2021/07/23 03:24:10;;;;;;;10.55;7.30;;;15.80;99.90;;;;;;5048262;28;20366;-74
2021/07/23 03:26:36;;;;;;;9.45;7.22;;;15.80;99.90;;;;;;5029121;28;20033;-74
2021/07/23 03:29:04;;;;;;;9.90;7.50;;;15.80;99.90;;;;;;5028392;28;20030;-74
2021/07/23 03:31:30;;;;;;;10.80;7.53;;;15.80;99.90;;;;;;5047766;28;20044;-74
2021/07/23 03:33:56;;;;;;;9.88;7.20;;;15.70;99.90;;;;;;5012201;28;20025;-74
2021/07/23 03:36:26;;;;;;;10.30;7.57;;;15.70;99.90;;;;;;5045668;28;20028;-74
2021/07/23 03:38:52;;;;;;;10.38;7.22;;;15.70;99.90;;;;;;5028889;28;20033;-74
2021/07/23 03:41:17;;;;;;;10.35;7.15;;;15.80;99.90;;;;;;5046897;28;20044;-74
2021/07/23 03:43:43;;;;;;;10.20;7.45;;;15.70;99.90;;;;;;5046615;28;20159;-74
2021/07/23 03:46:11;;;;;;;11.93;7.55;;;15.80;99.90;;;;;;5047046;28;20048;-74
2021/07/23 03:48:39;;;;;;;10.27;7.00;;;15.80;99.90;;;;;;5047451;28;20052;-74
2021/07/23 03:51:05;;;;;;;11.65;7.60;;;15.70;99.90;;;;;;5047337;28;20025;-74
2021/07/23 03:53:30;;;;;;;9.82;7.18;;;15.70;99.90;;;;;;5061393;28;20465;-74
2021/07/23 03:55:56;;;;;;;11.65;7.35;;;15.70;99.90;;;;;;5029308;28;20043;-74
2021/07/23 03:58:23;;;;;;;10.18;7.32;;;15.70;99.90;;;;;;5061856;28;20048;-74
2021/07/23 04:00:49;;;;;;;10.43;7.55;;;15.80;99.90;;;;;;5046708;28;20021;-74
2021/07/23 04:03:14;;;;;;;10.32;7.35;;;15.70;99.90;;;;;;5046436;28;20033;-74
2021/07/23 04:05:40;;;;;;;11.55;7.80;;;15.70;99.90;;;;;;5028415;28;20629;-74
2021/07/23 04:08:06;;;;;;;9.18;7.45;;;15.70;99.90;;;;;;5047162;28;20032;-73
2021/07/23 04:10:33;;;;;;;11.43;7.38;;;15.70;99.90;;;;;;5046838;28;20047;-73
2021/07/23 04:13:01;;;;;;;9.73;7.00;;;15.70;99.90;;;;;;5027977;28;21890;-74
2021/07/23 04:15:27;;;;;;;11.07;7.13;;;15.80;99.90;;;;;;5028121;28;20029;-74
2021/07/23 04:17:52;;;;;;;10.75;7.40;;;15.80;99.90;;;;;;5046510;28;20025;-74
2021/07/23 04:20:20;;;;;;;9.85;7.07;;;15.70;99.90;;;;;;5028120;28;20043;-74
2021/07/23 04:22:46;;;;;;;10.10;7.35;;;15.80;99.90;;;;;;5046448;28;20068;-74
2021/07/23 04:25:12;;;;;;;10.68;8.10;;;15.80;99.90;;;;;;5061518;28;20041;-74
2021/07/23 04:27:40;;;;;;;10.18;7.20;;;15.80;99.90;;;;;;5046592;28;20053;-75
2021/07/23 04:30:06;;;;;;;11.25;7.60;;;15.80;99.90;;;;;;5046841;28;20124;-74
2021/07/23 04:32:34;;;;;;;9.95;7.10;;;15.80;99.90;;;;;;5031748;28;20110;-74
2021/07/23 04:34:59;;;;;;;11.07;7.82;;;15.80;99.90;;;;;;5028409;28;20636;-74
2021/07/23 04:37:25;;;;;;;12.18;7.93;;;15.90;99.90;;;;;;5047384;28;20087;-74
2021/07/23 04:39:53;;;;;;;12.38;7.97;;;15.90;99.90;;;;;;5027866;28;20041;-74
2021/07/23 04:42:19;;;;;;;11.63;7.72;;;15.90;99.90;;;;;;5046239;28;20032;-74
2021/07/23 04:44:44;;;;;;;10.35;7.50;;;15.90;99.90;;;;;;5046781;28;20028;-74
2021/07/23 04:47:10;;;;;;;10.73;7.35;;;15.90;99.90;;;;;;5045723;28;20057;-74
2021/07/23 04:49:38;;;;;;;11.65;8.32;;;15.90;99.90;;;;;;5000462;28;20032;-74
2021/07/23 04:52:06;;;;;;;10.63;7.72;;;15.90;99.90;;;;;;5028453;28;20697;-74
2021/07/23 04:54:34;;;;;;;10.45;7.70;;;16.00;99.90;;;;;;5045771;28;20119;-74
2021/07/23 04:57:04;;;;;;;11.90;7.82;;;16.00;99.90;;;;;;5027895;28;20529;-74
2021/07/23 04:59:33;;;;;;;10.45;7.32;;;16.00;99.90;;;;;;5025937;28;20080;-75
2021/07/23 05:01:58;;;;;;;11.45;8.18;;;16.00;99.90;;;;;;5024635;28;20036;-75
2021/07/23 05:04:24;;;;;;;12.20;7.80;;;16.00;99.90;;;;;;5027045;28;20026;-74
2021/07/23 05:06:50;;;;;;;11.18;7.65;;;16.10;99.90;;;;;;4994289;28;20038;-75
2021/07/23 05:09:15;;;;;;;9.63;7.40;;;16.10;99.90;;;;;;5025532;28;20029;-75
2021/07/23 05:11:48;;;;;;;10.52;7.25;;;16.10;99.90;;;;;;5026227;28;20033;-74
2021/07/23 05:14:16;;;;;;;10.77;7.97;;;16.20;99.90;;;;;;5022559;28;20038;-75
2021/07/23 05:16:42;;;;;;;10.27;7.30;;;16.20;99.90;;;;;;5041897;28;20020;-74
2021/07/23 05:19:08;;;;;;;10.00;7.28;;;16.30;99.90;;;;;;5027509;28;20045;-74
2021/07/23 05:21:36;;;;;;;9.95;7.63;;;16.30;99.90;;;;;;5025564;28;21560;-74
2021/07/23 05:24:05;;;;;;;11.05;7.68;;;16.30;99.90;;;;;;5040778;28;20037;-75
2021/07/23 05:26:36;;;;;;;11.18;8.10;;;16.30;99.90;;;;;;5024250;28;20056;-74
2021/07/23 05:29:04;;;;;;;11.32;7.68;;;16.40;99.90;;;;;;5028578;28;20071;-74
2021/07/23 05:31:29;;;;;;;10.60;7.90;;;16.40;99.90;;;;;;5030446;28;20116;-74
2021/07/23 05:33:57;;;;;;;11.23;7.57;;;16.50;99.90;;;;;;4996443;28;20040;-75
2021/07/23 05:36:25;;;;;;;10.85;7.85;;;16.60;99.90;;;;;;5029794;28;20075;-74
2021/07/23 05:38:51;;;;;;;9.63;7.60;;;16.60;99.90;;;;;;5029607;28;20053;-75
2021/07/23 05:41:19;;;;;;;10.73;7.50;;;16.70;99.90;;;;;;5003800;28;20543;-74
2021/07/23 05:43:45;;;;;;;12.48;8.02;;;16.70;99.90;;;;;;5011393;28;20034;-70
2021/07/23 05:46:10;;;;;;;11.25;8.73;;;16.80;99.90;;;;;;5044742;28;21940;-70
2021/07/23 05:48:37;;;;;;;11.85;8.18;;;16.80;99.90;;;;;;5030112;28;20108;-74
2021/07/23 05:51:04;;;;;;;11.52;8.45;;;16.90;99.90;;;;;;5044953;28;20502;-75
2021/07/23 05:53:30;;;;;;;11.35;7.53;;;16.90;99.90;;;;;;5045299;28;20149;-74
2021/07/23 05:55:58;;;;;;;11.00;7.65;;;17.00;99.90;;;;;;5009766;28;20029;-75
2021/07/23 05:58:26;;;;;;;15.75;11.82;;;17.10;99.90;;;;;;5040979;28;20052;-70
2021/07/23 06:00:57;;;;;;;22.27;18.52;;;17.10;99.90;;;;;;5031144;28;20040;-70
2021/07/23 06:03:28;;;;;;;15.43;10.98;;;17.20;99.90;;;;;;5032428;28;20128;-75
2021/07/23 06:05:55;;;;;;;9.90;7.63;;;17.30;99.90;;;;;;5032300;28;20056;-75
2021/07/23 06:08:23;;;;;;;12.25;7.88;;;17.40;99.90;;;;;;5048764;28;20305;-75
2021/07/23 06:10:49;;;;;;;12.10;8.20;;;17.40;99.90;;;;;;5029387;28;20064;-74
2021/07/23 06:13:17;;;;;;;12.20;8.07;;;17.50;99.90;;;;;;5048757;28;20163;-75
2021/07/23 06:15:45;;;;;;;10.10;7.60;;;17.60;99.90;;;;;;5047919;28;20059;-74
2021/07/23 06:18:10;;;;;;;11.70;8.00;;;17.60;99.90;;;;;;5047350;28;20021;-75
2021/07/23 06:20:36;;;;;;;10.43;8.13;;;17.70;99.90;;;;;;5047071;28;20091;-74
2021/07/23 06:23:02;;;;;;;11.23;7.97;;;17.80;99.90;;;;;;5047159;28;20457;-74
2021/07/23 06:25:29;;;;;;;10.63;7.60;;;17.80;99.90;;;;;;5047546;28;20025;-74
2021/07/23 06:27:57;;;;;;;11.50;8.18;;;17.90;99.90;;;;;;5028887;28;20036;-75
2021/07/23 06:30:23;;;;;;;10.15;7.97;;;17.90;99.90;;;;;;5048079;28;20112;-75
2021/07/23 06:32:49;;;;;;;11.05;7.90;;;18.00;99.90;;;;;;5046374;28;20109;-74
2021/07/23 06:35:14;;;;;;;11.38;7.53;;;18.10;99.90;;;;;;5045834;28;20389;-74
2021/07/23 06:37:40;;;;;;;10.70;7.80;;;18.10;99.90;;;;;;5046903;28;20375;-74
2021/07/23 06:40:09;;;;;;;11.02;8.23;;;18.20;99.90;;;;;;5046223;28;20349;-74
2021/07/23 06:42:36;;;;;;;9.93;7.47;;;18.30;99.90;;;;;;5027989;28;20029;-74
2021/07/23 06:45:02;;;;;;;11.90;7.85;;;18.30;99.90;;;;;;5047454;28;20434;-74
2021/07/23 06:47:30;;;;;;;10.88;7.60;;;18.40;99.90;;;;;;5046530;28;20037;-74
2021/07/23 06:49:56;;;;;;;10.25;7.40;;;18.50;99.90;;;;;;5047994;28;20357;-75
2021/07/23 06:52:21;;;;;;;9.85;7.45;;;18.60;99.90;;;;;;5047080;28;20029;-74
2021/07/23 06:54:50;;;;;;;10.10;7.45;;;18.60;99.90;;;;;;5047189;28;20040;-74
2021/07/23 06:57:15;;;;;;;12.57;7.97;;;18.70;99.90;;;;;;5045875;28;20086;-74
2021/07/23 06:59:46;;;;;;;9.90;7.50;;;18.80;99.90;;;;;;5026475;28;20033;-74
2021/07/23 07:02:13;;;;;;;9.88;7.40;;;18.80;99.90;;;;;;4994438;28;20144;-74
2021/07/23 07:04:44;;;;;;;10.07;7.05;;;18.90;99.90;;;;;;5028305;28;20045;-75
2021/07/23 07:07:13;;;;;;;11.25;7.78;;;19.00;99.90;;;;;;5028180;28;20047;-75
2021/07/23 07:09:40;;;;;;;10.38;7.68;;;19.00;99.90;;;;;;5041977;28;20158;-74
2021/07/23 07:12:08;;;;;;;9.93;7.50;;;19.20;99.90;;;;;;5009315;28;20043;-74
2021/07/23 07:14:34;;;;;;;11.30;7.68;;;19.20;99.90;;;;;;5010410;28;20040;-74
2021/07/23 07:17:00;;;;;;;11.88;7.80;;;19.30;99.90;;;;;;5027080;28;20024;-74
2021/07/23 07:19:28;;;;;;;9.75;7.65;;;19.40;99.90;;;;;;5027304;28;20731;-74
2021/07/23 07:21:55;;;;;;;10.20;7.57;;;19.40;99.90;;;;;;5025766;28;20157;-75
2021/07/23 07:24:24;;;;;;;14.65;8.35;;;19.50;99.90;;;;;;5008752;28;20038;-74
2021/07/23 07:26:49;;;;;;;13.02;8.25;;;19.60;99.90;;;;;;5026063;28;20088;-74
2021/07/23 07:29:15;;;;;;;11.95;8.15;;;19.60;99.90;;;;;;5027223;28;20036;-75
2021/07/23 07:31:41;;;;;;;10.98;7.88;;;19.70;99.90;;;;;;5024668;28;20694;-75
2021/07/23 07:34:07;;;;;;;13.73;8.65;;;19.80;99.90;;;;;;5026961;28;20029;-75
2021/07/23 07:36:33;;;;;;;13.05;9.27;;;19.90;99.90;;;;;;5008905;28;20029;-74
2021/07/23 07:39:01;;;;;;;11.77;8.77;;;20.00;99.90;;;;;;5012031;28;20113;-74
2021/07/23 07:41:29;;;;;;;12.13;8.48;;;20.00;99.90;;;;;;5025527;28;20571;-75
2021/07/23 07:43:55;;;;;;;12.68;8.02;;;20.10;99.90;;;;;;5026178;28;20601;-74
2021/07/23 07:46:21;;;;;;;11.48;8.15;;;20.20;99.90;;;;;;5009164;28;20029;-73
2021/07/23 07:48:47;;;;;;;10.30;7.90;;;20.30;99.90;;;;;;5026523;28;20025;-72
2021/07/23 07:51:12;;;;;;;12.38;8.32;;;20.40;99.90;;;;;;5024987;28;20033;-72
2021/07/23 07:53:38;;;;;;;11.27;7.93;;;20.50;99.90;;;;;;5026261;28;20029;-72
2021/07/23 07:56:10;;;;;;;10.57;7.78;;;20.60;99.90;;;;;;5026121;28;20451;-72
2021/07/23 07:58:35;;;;;;;11.35;7.63;;;20.80;99.90;;;;;;5054142;28;20052;-72
2021/07/23 08:01:08;;;;;;;10.77;7.38;;;21.00;99.90;;;;;;5045752;28;20037;-72
2021/07/23 08:03:36;;;;;;;10.65;7.20;;;21.20;99.90;;;;;;5029670;28;20033;-72
2021/07/23 08:06:07;;;;;;;11.85;8.10;;;21.30;99.90;;;;;;5013320;28;20036;-72
2021/07/23 08:08:33;;;;;;;;;;;21.50;99.90;;;;;;5062525;28;20021;-72
2021/07/23 08:10:59;;;;;;;11.23;7.43;;;21.60;99.90;;;;;;5045765;28;19969;-72
2021/07/23 08:13:27;;;;;;;9.85;7.00;;;21.60;99.90;;;;;;5045407;28;20036;-72
2021/07/23 08:15:54;;;;;;;10.25;6.68;;;21.70;99.90;;;;;;5045303;28;20583;-72
2021/07/23 08:18:22;;;;;;;10.68;6.53;;;21.80;96.00;;;;;;5043089;28;20036;-72
2021/07/23 08:20:51;;;;;;;11.30;7.10;;;21.90;99.90;;;;;;5027815;28;20028;-72
2021/07/23 08:23:20;;;;;;;12.00;7.13;;;22.00;97.60;;;;;;5045407;28;20040;-72
2021/07/23 08:25:49;;;;;;;10.73;7.10;;;22.10;98.70;;;;;;5027536;28;20032;-72
2021/07/23 08:28:18;;;;;;;9.27;6.85;;;22.20;99.40;;;;;;5045394;28;20028;-72
2021/07/23 08:30:46;;;;;;;12.55;7.53;;;22.30;99.90;;;;;;5044714;28;20037;-72
2021/07/23 08:33:16;;;;;;;11.23;7.95;;;22.40;99.90;;;;;;5044176;28;20032;-72
2021/07/23 08:35:45;;;;;;;10.07;7.35;;;22.40;99.60;;;;;;5045533;28;20828;-72
2021/07/23 08:38:11;;;;;;;11.30;7.32;;;22.50;99.90;;;;;;5045303;28;20033;-72
2021/07/23 08:40:39;;;;;;;10.73;7.72;;;22.60;99.90;;;;;;5045045;28;20041;-72
2021/07/23 08:43:05;;;;;;;17.83;8.30;;;22.70;99.90;;;;;;5044149;28;20698;-72
2021/07/23 08:45:30;;;;;;;9.75;7.43;;;22.70;99.90;;;;;;5060857;28;20040;-72
2021/07/23 08:47:56;;;;;;;13.77;8.30;;;22.80;97.20;;;;;;5046012;28;20501;-72
2021/07/23 08:50:23;;;;;;;10.80;7.85;;;22.80;95.50;;;;;;5032196;28;20039;-72
2021/07/23 08:52:50;;;;;;;10.68;7.60;;;22.90;94.40;;;;;;5044486;28;20584;-72
2021/07/23 08:55:19;;;;;;;11.15;7.70;;;22.90;93.20;;;;;;5015687;28;20063;-72
2021/07/23 08:57:45;;;;;;;9.75;7.72;;;22.90;95.80;;;;;;5045983;28;20055;-72
2021/07/23 09:00:12;;;;;;;9.95;7.82;;;23.00;93.30;;;;;;5043791;28;20076;-72
2021/07/23 09:02:55;;;;;;;10.38;8.15;;;23.10;95.60;;;;;;5013655;28;20057;-72
2021/07/23 09:05:31;;;;;;;10.10;8.40;;;23.10;91.70;;;;;;5031866;28;20036;-72
2021/07/23 09:08:13;;;;;;;10.85;8.00;;;23.10;91.00;;;;;;5031976;28;20190;-72
2021/07/23 09:10:40;;;;;;;10.10;8.50;;;23.20;92.30;;;;;;5048042;28;20128;-73
2021/07/23 09:13:08;;;;;;;9.43;8.02;;;23.20;91.50;;;;;;5049291;28;20056;-74
2021/07/23 09:15:41;;;;;;;11.65;8.45;;;23.30;93.80;;;;;;5048332;28;20545;-74
2021/07/23 09:18:23;;;;;;;11.90;8.73;;;23.50;93.90;;;;;;5030517;28;20124;-74
2021/07/23 09:20:59;;;;;;;11.38;8.52;;;23.50;85.90;;;;;;5045824;28;20317;-74
2021/07/23 09:23:35;;;;;;;10.65;8.07;;;23.50;92.60;;;;;;5031289;28;20033;-74
2021/07/23 09:26:14;;;;;;;11.77;8.30;;;23.60;85.20;;;;;;5048786;28;20119;-74
2021/07/23 09:28:40;;;;;;;9.63;7.93;;;23.70;87.40;;;;;;5046345;28;20061;-74
2021/07/23 09:31:07;;;;;;;11.45;8.57;;;23.80;94.20;;;;;;5049068;28;20049;-74
2021/07/23 09:33:38;;;;;;;11.60;8.05;;;23.90;90.30;;;;;;5014905;28;20041;-74
2021/07/23 09:36:10;;;;;;;9.85;8.40;;;24.00;92.60;;;;;;5016839;28;20029;-74
2021/07/23 09:38:36;;;;;;;10.52;8.45;;;24.10;82.20;;;;;;5048937;28;20248;-74
2021/07/23 09:41:02;;;;;;;11.25;8.18;;;24.20;92.70;;;;;;5050100;28;20578;-75
2021/07/23 09:43:32;;;;;;;10.43;8.52;;;24.30;88.70;;;;;;5047616;28;20514;-74
2021/07/23 09:46:16;;;;;;;9.98;7.78;;;24.40;91.70;;;;;;5063930;28;20028;-75
2021/07/23 09:48:44;;;;;;;9.95;8.35;;;24.50;82.10;;;;;;5048828;28;20040;-75
2021/07/23 09:51:10;;;;;;;11.80;8.82;;;24.50;86.00;;;;;;5003296;28;20175;-75
2021/07/23 09:53:36;;;;;;;10.40;8.15;;;24.50;83.70;;;;;;5049490;28;20071;-75
2021/07/23 09:56:07;;;;;;;12.55;9.23;;;24.60;83.00;;;;;;5031182;28;20112;-74
2021/07/23 09:58:37;;;;;;;12.07;8.23;;;24.50;74.60;;;;;;5031706;28;20128;-74
2021/07/23 10:01:08;;;;;;;12.07;8.27;;;24.60;80.20;;;;;;5063350;28;20020;-75
2021/07/23 10:03:39;;;;;;;;;;;24.60;83.00;;;;;;5031009;28;20033;-75
2021/07/23 10:06:09;;;;;;;10.02;8.25;;;24.70;78.00;;;;;;5047008;28;19920;-74
2021/07/23 10:08:38;;;;;;;15.27;8.68;;;24.80;89.00;;;;;;5045948;28;20047;-74
2021/07/23 10:11:04;;;;;;;10.85;9.23;;;24.90;83.40;;;;;;5047813;28;21865;-74
2021/07/23 10:13:30;;;;;;;11.60;8.73;;;24.80;80.10;;;;;;4349720;28;10000868;-74
2021/07/23 10:15:56;;;;;;;13.00;8.38;;;24.80;81.20;;;;;;5028726;28;20032;-74
2021/07/23 10:18:25;;;;;;;12.10;8.57;;;24.70;83.50;;;;;;5047693;28;20024;-74
2021/07/23 10:20:50;;;;;;;10.88;9.10;;;24.60;84.20;;;;;;5030082;28;20032;-75
2021/07/23 10:23:20;;;;;;;12.60;9.05;;;24.60;80.80;;;;;;5048459;28;20078;-75
2021/07/23 10:25:52;;;;;;;12.02;8.60;;;24.60;77.80;;;;;;5045818;28;20035;-75
2021/07/23 10:28:39;;;;;;;10.25;8.57;;;24.50;78.00;;;;;;5044672;28;20040;-74
2021/07/23 10:31:17;;;;;;;12.60;9.77;;;24.70;72.50;;;;;;5047897;28;20029;-75
2021/07/23 10:33:52;;;;;;;10.95;8.88;;;24.80;77.60;;;;;;5028379;28;20049;-74
2021/07/23 10:36:39;;;;;;;10.35;8.32;;;24.90;83.80;;;;;;5029763;28;20025;-74
2021/07/23 10:39:05;;;;;;;11.95;9.25;;;24.90;79.50;;;;;;5046827;28;20032;-75
2021/07/23 10:41:41;;;;;;;10.25;8.70;;;25.00;83.20;;;;;;5026625;28;20028;-74
2021/07/23 10:44:32;;;;;;;11.57;8.73;;;25.00;82.10;;;;;;5029508;28;20047;-74
2021/07/23 10:47:02;;;;;;;11.90;8.98;;;25.10;78.40;;;;;;5046943;28;20387;-74
2021/07/23 10:49:30;;;;;;;13.48;10.32;;;25.20;75.60;;;;;;5047869;28;20040;-74
2021/07/23 10:51:59;;;;;;;11.90;10.45;;;25.40;78.40;;;;;;5062820;28;20028;-74
2021/07/23 10:54:28;;;;;;;22.13;19.60;;;25.50;78.50;;;;;;5029273;28;20055;-75
2021/07/23 10:57:00;;;;;;;15.20;12.27;;;25.60;74.40;;;;;;5046832;28;20047;-74
2021/07/23 10:59:41;;;;;;;12.38;10.13;;;25.60;73.50;;;;;;5029016;28;20451;-74
2021/07/23 11:02:07;;;;;;;10.95;9.23;;;25.60;75.30;;;;;;5047154;28;20122;-75
2021/07/23 11:04:35;;;;;;;10.45;8.73;;;25.60;70.00;;;;;;5011865;28;20036;-74
2021/07/23 11:07:07;;;;;;;10.45;8.10;;;25.60;70.80;;;;;;5046998;28;20381;-75
2021/07/23 11:09:34;;;;;;;;;;;25.60;73.40;;;;;;5027750;28;20058;-75
2021/07/23 11:12:28;;;;;;;10.43;8.43;;;25.70;73.30;;;;;;5046415;28;20365;-75
2021/07/23 11:15:03;;;;;;;10.73;8.60;;;25.40;67.80;;;;;;5030322;28;20466;-75
2021/07/23 11:17:29;;;;;;;10.60;8.57;;;25.30;70.30;;;;;;5027541;28;20052;-75
2021/07/23 11:19:58;;;;;;;11.07;7.78;;;25.30;77.00;;;;;;5046317;28;20339;-75
2021/07/23 11:22:27;;;;;;;10.23;7.82;;;25.30;79.00;;;;;;5046343;28;20024;-75
2021/07/23 11:25:00;;;;;;;10.63;8.68;;;25.20;74.00;;;;;;5028434;28;20871;-75
2021/07/23 11:27:29;;;;;;;10.57;8.40;;;25.20;77.20;;;;;;5000061;28;20413;-74
2021/07/23 11:29:56;;;;;;;10.07;8.20;;;25.20;76.60;;;;;;5048313;28;20028;-75
2021/07/23 11:32:27;;;;;;;11.93;8.82;;;25.10;76.40;;;;;;5061328;28;20434;-75
2021/07/23 11:35:09;;;;;;;9.82;8.45;;;25.00;73.50;;;;;;5044737;28;20056;-75
2021/07/23 11:37:36;;;;;;;10.63;8.30;;;25.00;77.70;;;;;;5044212;28;20029;-75
2021/07/23 11:40:07;;;;;;;10.35;8.15;;;24.90;81.50;;;;;;5047943;28;20029;-75
2021/07/23 11:42:37;;;;;;;11.15;8.20;;;24.90;80.70;;;;;;5030306;28;20048;-75
2021/07/23 11:45:04;;;;;;;9.40;8.32;;;24.90;83.20;;;;;;5063038;28;20037;-75
2021/07/23 11:47:30;;;;;;;11.65;8.90;;;24.90;83.10;;;;;;5045663;28;20466;-75
2021/07/23 11:49:56;;;;;;;10.68;9.00;;;24.80;78.90;;;;;;5045944;28;20565;-75
2021/07/23 11:52:28;;;;;;;10.38;8.82;;;24.80;81.40;;;;;;5010744;28;20653;-75
2021/07/23 11:55:01;;;;;;;10.43;8.82;;;24.80;83.30;;;;;;5045623;28;20028;-75
2021/07/23 11:57:30;;;;;;;10.48;8.90;;;24.80;84.40;;;;;;5044835;28;20044;-74
2021/07/23 11:59:56;;;;;;;11.82;8.90;;;25.00;79.70;;;;;;5046093;28;20024;-75
2021/07/23 12:02:28;;;;;;;10.50;8.27;;;25.20;80.00;;;;;;5028163;28;20044;-74
2021/07/23 12:05:11;;;;;;;10.40;8.23;;;25.30;80.40;;;;;;5045576;28;20538;-75
2021/07/23 12:07:40;;;;;;;11.55;8.80;;;25.40;81.60;;;;;;5061469;28;20033;-74
2021/07/23 12:10:11;;;;;;;11.50;8.65;;;25.60;79.60;;;;;;5061536;28;20029;-74
2021/07/23 12:12:37;;;;;;;10.07;8.40;;;25.70;75.90;;;;;;5043914;28;20063;-74
2021/07/23 12:15:07;;;;;;;10.65;8.85;;;25.90;77.90;;;;;;5044966;28;20449;-74
2021/07/23 12:17:34;;;;;;;11.45;9.45;;;26.00;74.20;;;;;;5032011;28;20020;-74
2021/07/23 12:20:00;;;;;;;11.52;9.25;;;26.10;75.00;;;;;;5061860;28;20028;-74
2021/07/23 12:22:25;;;;;;;11.10;8.93;;;26.20;70.00;;;;;;5046220;28;20591;-75
2021/07/23 12:24:53;;;;;;;10.40;8.45;;;26.10;68.40;;;;;;4997705;28;20033;-75
2021/07/23 12:27:22;;;;;;;15.18;9.07;;;26.00;70.20;;;;;;5061264;28;22051;-75
2021/07/23 12:29:48;;;;;;;10.63;8.55;;;25.90;72.30;;;;;;5028027;28;20726;-75
2021/07/23 12:32:26;;;;;;;10.45;8.48;;;25.80;72.00;;;;;;5061464;28;20123;-75
2021/07/23 12:34:56;;;;;;;10.85;8.60;;;25.70;75.20;;;;;;5045483;28;20431;-74
2021/07/23 12:37:21;;;;;;;10.73;8.48;;;25.70;76.60;;;;;;5032099;28;20061;-74
2021/07/23 12:40:12;;;;;;;11.52;9.32;;;25.80;73.40;;;;;;5045788;28;20431;-75
2021/07/23 12:42:42;;;;;;;11.68;8.60;;;25.70;72.80;;;;;;5046263;28;20281;-75